createdAt,value
2023-03-12T00:02:06.550Z,99672.98
2023-03-12T00:04:42.778Z,99675.77
2023-03-12T00:07:12.786Z,99670.80
2023-03-12T00:09:49.988Z,99672.23
2023-03-12T00:12:26.132Z,99674.57
2023-03-12T00:15:02.078Z,99678.86
2023-03-12T00:17:40.154Z,99673.13
2023-03-12T00:20:12.756Z,99666.24
2023-03-12T00:22:48.455Z,99671.45
2023-03-12T00:25:24.454Z,99665.76
2023-03-12T00:28:00.937Z,99664.99
2023-03-12T00:30:37.457Z,99666.67
2023-03-12T00:33:14.801Z,99659.26
2023-03-12T00:35:51.175Z,99654.73
2023-03-12T00:38:27.369Z,99653.26
2023-03-12T00:40:57.498Z,99652.77
2023-03-12T00:43:29.293Z,99649.08
2023-03-12T00:46:05.155Z,99645.29
2023-03-12T00:48:42.030Z,99647.26
2023-03-12T00:51:18.537Z,99650.79
2023-03-12T00:53:56.384Z,99649.94
2023-03-12T00:56:34.498Z,99645.62
2023-03-12T00:59:05.906Z,99646.61
2023-03-12T01:01:42.839Z,99645.33
2023-03-12T01:04:19.239Z,99648.33
2023-03-12T01:06:50.442Z,99644.52
2023-03-12T01:09:27.221Z,99636.60
2023-03-12T01:12:03.596Z,99638.60
2023-03-12T01:14:40.492Z,99636.30
2023-03-12T01:17:10.686Z,99639.23
2023-03-12T01:19:47.653Z,99635.63
2023-03-12T01:22:23.739Z,99637.24
2023-03-12T01:24:53.948Z,99637.56
2023-03-12T01:27:30.569Z,99627.81
2023-03-12T01:30:07.340Z,99630.78
2023-03-12T01:32:43.986Z,99626.52
2023-03-12T01:35:21.125Z,99622.02
2023-03-12T01:37:57.748Z,99614.67
2023-03-12T01:40:38.379Z,99619.71
2023-03-12T01:43:39.256Z,99610.36
2023-03-12T01:46:46.347Z,99606.13
2023-03-12T01:49:34.344Z,99599.02
2023-03-12T01:52:14.030Z,99605.98
2023-03-12T01:55:05.144Z,99603.02
2023-03-12T01:57:54.135Z,99599.17
2023-03-12T02:00:31.318Z,99601.46
2023-03-12T02:03:14.345Z,99601.36
2023-03-12T02:06:09.358Z,99605.85
2023-03-12T02:08:49.041Z,99606.07
2023-03-12T02:11:19.559Z,99607.19
2023-03-12T02:13:58.083Z,99604.09
2023-03-12T02:16:35.109Z,99610.57
2023-03-12T02:19:21.009Z,99603.91
2023-03-12T02:21:57.168Z,99606.02
2023-03-12T02:24:50.569Z,99608.61
2023-03-12T02:27:28.271Z,99613.74
2023-03-12T02:30:05.393Z,99612.08
2023-03-12T02:32:44.681Z,99609.10
2023-03-12T02:35:17.336Z,99602.15
2023-03-12T02:37:55.293Z,99611.89
2023-03-12T02:40:48.814Z,99615.06
2023-03-12T02:43:27.936Z,99600.90
2023-03-12T02:46:04.439Z,99608.90
2023-03-12T02:48:44.668Z,99608.51
2023-03-12T02:51:15.498Z,99606.88
2023-03-12T02:53:47.276Z,99609.52
2023-03-12T02:56:31.318Z,99608.73
2023-03-12T02:59:04.483Z,99606.31
2023-03-12T03:01:38.040Z,99605.36
2023-03-12T03:04:15.245Z,99602.11
2023-03-12T03:06:52.769Z,99609.44
2023-03-12T03:09:30.993Z,99616.98
2023-03-12T03:12:07.654Z,99617.20
2023-03-12T03:14:44.214Z,99618.98
2023-03-12T03:17:15.773Z,99624.14
2023-03-12T03:19:52.698Z,99623.91
2023-03-12T03:22:28.791Z,99623.72
2023-03-12T03:25:00.298Z,99636.52
2023-03-12T03:27:36.544Z,99636.40
2023-03-12T03:30:12.472Z,99641.55
2023-03-12T03:32:49.465Z,99643.45
2023-03-12T03:35:23.065Z,99653.36
2023-03-12T03:37:54.760Z,99653.59
2023-03-12T03:40:31.845Z,99656.42
2023-03-12T03:43:02.845Z,99651.20
2023-03-12T03:45:37.434Z,99663.27
2023-03-12T03:48:15.297Z,99665.79
2023-03-12T03:50:53.751Z,99670.29
2023-03-12T03:53:31.168Z,99668.48
2023-03-12T03:56:13.006Z,99661.95
2023-03-12T03:58:49.284Z,99660.65
2023-03-12T04:01:20.141Z,99663.48
2023-03-12T04:03:57.383Z,99672.38
2023-03-12T04:06:27.549Z,99675.48
2023-03-12T04:09:00.681Z,99681.66
2023-03-12T04:11:38.458Z,99689.24
2023-03-12T04:14:08.822Z,99690.15
2023-03-12T04:16:46.505Z,99692.98
2023-03-12T04:19:16.905Z,99698.86
2023-03-12T04:21:53.912Z,99699.79
2023-03-12T04:24:25.339Z,99702.59
2023-03-12T04:26:59.858Z,99701.61
2023-03-12T04:29:36.214Z,99703.02
2023-03-12T04:32:14.261Z,99701.47
2023-03-12T04:34:51.321Z,99700.96
2023-03-12T04:37:21.611Z,99697.14
2023-03-12T04:39:53.301Z,99692.73
2023-03-12T04:42:25.025Z,99690.62
2023-03-12T04:44:58.954Z,99686.95
2023-03-12T04:47:35.846Z,99687.86
2023-03-12T04:50:13.442Z,99691.05
2023-03-12T04:52:49.890Z,99687.34
2023-03-12T04:55:26.851Z,99686.21
2023-03-12T04:57:59.219Z,99684.33
2023-03-12T05:00:31.141Z,99680.54
2023-03-12T05:03:02.291Z,99686.49
2023-03-12T05:05:39.199Z,99690.01
2023-03-12T05:08:15.592Z,99695.56
2023-03-12T05:10:52.209Z,99685.44
2023-03-12T05:13:24.039Z,99685.23
2023-03-12T05:16:01.535Z,99688.69
2023-03-12T05:18:32.643Z,99696.09
2023-03-12T05:21:13.353Z,99695.70
2023-03-12T05:23:44.234Z,99697.73
2023-03-12T05:26:34.453Z,99694.10
2023-03-12T05:29:06.537Z,99700.54
2023-03-12T05:31:41.742Z,99696.21
2023-03-12T05:34:18.115Z,99694.15
2023-03-12T05:36:54.448Z,99698.48
2023-03-12T05:39:30.736Z,99707.84
2023-03-12T05:42:01.003Z,99712.02
2023-03-12T05:44:49.309Z,99719.33
2023-03-12T05:47:20.076Z,99723.13
2023-03-12T05:49:56.533Z,99718.39
2023-03-12T05:52:33.331Z,99714.23
2023-03-12T05:55:03.630Z,99715.61
2023-03-12T05:57:40.570Z,99717.13
2023-03-12T06:00:18.259Z,99714.51
2023-03-12T06:02:55.409Z,99721.95
2023-03-12T06:05:32.244Z,99724.97
2023-03-12T06:08:10.052Z,99733.39
2023-03-12T06:10:46.053Z,99739.41
2023-03-12T06:13:19.486Z,99743.27
2023-03-12T06:15:56.668Z,99747.70
2023-03-12T06:18:33.582Z,99748.98
2023-03-12T06:21:14.174Z,99754.59
2023-03-12T06:23:46.452Z,99754.70
2023-03-12T06:26:21.546Z,99756.27
2023-03-12T06:28:58.293Z,99755.39
2023-03-12T06:31:37.234Z,99742.64
2023-03-12T06:34:17.422Z,99751.31
2023-03-12T06:36:54.215Z,99757.56
2023-03-12T06:39:30.996Z,99762.61
2023-03-12T06:42:07.686Z,99764.61
2023-03-12T06:44:44.604Z,99763.68
2023-03-12T06:47:19.640Z,99775.55
2023-03-12T06:49:56.035Z,99779.17
2023-03-12T06:52:33.381Z,99780.88
2023-03-12T06:55:05.953Z,99782.22
2023-03-12T06:57:42.617Z,99786.55
2023-03-12T07:00:21.353Z,99787.23
2023-03-12T07:02:57.807Z,99790.98
2023-03-12T07:05:35.230Z,99788.88
2023-03-12T07:08:12.690Z,99795.84
2023-03-12T07:10:50.201Z,99802.89
2023-03-12T07:13:21.708Z,99799.60
2023-03-12T07:16:01.127Z,99799.56
2023-03-12T07:18:38.457Z,99806.68
2023-03-12T07:21:24.894Z,99803.89
2023-03-12T07:24:07.204Z,99804.32
2023-03-12T07:26:44.060Z,99805.09
2023-03-12T07:29:20.411Z,99800.27
2023-03-12T07:31:57.825Z,99801.25
2023-03-12T07:34:34.983Z,99800.48
2023-03-12T07:37:05.921Z,99800.04
2023-03-12T07:39:44.860Z,99808.79
2023-03-12T07:42:20.258Z,99805.47
2023-03-12T07:44:56.847Z,99811.98
2023-03-12T07:47:34.295Z,99820.30
2023-03-12T07:50:11.671Z,99813.92
2023-03-12T07:52:49.174Z,99822.12
2023-03-12T07:55:21.360Z,99818.88
2023-03-12T07:58:00.246Z,99824.05
2023-03-12T08:00:37.318Z,99827.09
2023-03-12T08:03:08.891Z,99833.53
2023-03-12T08:05:45.501Z,99832.90
2023-03-12T08:08:22.008Z,99842.86
2023-03-12T08:11:01.029Z,99846.40
2023-03-12T08:13:38.178Z,99850.08
2023-03-12T08:16:15.898Z,99844.35
2023-03-12T08:18:46.849Z,99849.12
2023-03-12T08:21:22.300Z,99849.50
2023-03-12T08:24:00.510Z,99854.91
2023-03-12T08:26:31.691Z,99862.13
2023-03-12T08:29:06.467Z,99860.77
2023-03-12T08:32:01.564Z,99864.58
2023-03-12T08:34:42.047Z,99871.35
2023-03-12T08:37:19.417Z,99876.13
2023-03-12T08:39:56.119Z,99878.89
2023-03-12T08:42:26.852Z,99881.00
2023-03-12T08:45:05.694Z,99882.43
2023-03-12T08:47:36.689Z,99873.40
2023-03-12T08:50:17.406Z,99881.63
2023-03-12T08:52:55.565Z,99883.95
2023-03-12T08:55:33.043Z,99893.65
2023-03-12T08:58:11.558Z,99880.11
2023-03-12T09:00:48.989Z,99900.67
2023-03-12T09:03:24.245Z,99893.58
2023-03-12T09:06:17.214Z,99881.52
2023-03-12T09:08:54.555Z,99891.00
2023-03-12T09:11:25.129Z,99903.80
2023-03-12T09:17:04.946Z,99900.33
2023-03-12T09:19:41.425Z,99907.24
2023-03-12T09:22:20.307Z,99903.93
2023-03-12T09:24:57.261Z,99904.32
2023-03-12T09:27:44.834Z,99908.16
2023-03-12T09:30:26.950Z,99911.58
2023-03-12T09:33:05.565Z,99924.78
2023-03-12T09:35:43.673Z,99922.02
2023-03-12T09:38:20.890Z,99919.42
2023-03-12T09:40:58.483Z,99919.78
2023-03-12T09:43:48.930Z,99925.57
2023-03-12T09:46:44.413Z,99934.67
2023-03-12T09:49:47.902Z,99932.25
2023-03-12T09:52:30.759Z,99936.11
2023-03-12T09:55:25.345Z,99943.86
2023-03-12T09:58:02.985Z,99950.69
2023-03-12T10:00:40.344Z,99943.05
2023-03-12T10:03:55.524Z,99944.63
2023-03-12T10:06:38.313Z,99950.48
2023-03-12T10:09:15.012Z,99946.09
2023-03-12T10:11:55.648Z,99950.67
2023-03-12T10:14:52.844Z,99955.30
2023-03-12T10:17:58.883Z,99960.11
2023-03-12T10:21:04.034Z,99962.83
2023-03-12T10:23:52.392Z,99959.55
2023-03-12T10:26:37.261Z,99969.83
2023-03-12T10:29:25.651Z,99972.03
2023-03-12T10:32:17.978Z,99973.65
2023-03-12T10:35:16.984Z,99978.85
2023-03-12T10:38:00.709Z,99975.45
2023-03-12T10:40:35.726Z,99986.44
2023-03-12T10:43:10.429Z,99987.02
2023-03-12T10:46:16.882Z,99982.23
2023-03-12T10:49:11.480Z,99974.88
2023-03-12T10:52:19.143Z,99983.38
2023-03-12T10:55:06.002Z,99982.45
2023-03-12T10:57:46.642Z,99985.23
2023-03-12T11:00:32.775Z,99986.98
2023-03-12T11:03:24.811Z,99990.27
2023-03-12T11:06:07.105Z,99996.84
2023-03-12T11:09:16.345Z,99993.60
2023-03-12T11:11:52.085Z,99999.48
2023-03-12T11:14:30.674Z,100000.27
2023-03-12T11:17:28.160Z,99994.23
2023-03-12T11:20:23.804Z,99996.75
2023-03-12T11:23:13.899Z,99985.52
2023-03-12T11:26:00.562Z,99983.43
2023-03-12T11:28:52.762Z,99999.02
2023-03-12T11:31:39.756Z,100000.04
2023-03-12T11:34:31.892Z,99993.76
2023-03-12T11:37:32.379Z,100000.36
2023-03-12T11:40:42.244Z,99994.51
2023-03-12T11:43:49.777Z,99991.86
2023-03-12T11:47:11.828Z,99995.08
2023-03-12T11:50:24.953Z,100004.20
2023-03-12T11:53:23.097Z,100001.65
2023-03-12T11:56:26.458Z,100006.77
2023-03-12T11:59:16.049Z,100007.19
2023-03-12T12:02:18.584Z,100004.80
2023-03-12T12:05:30.921Z,100002.27
2023-03-12T12:08:21.138Z,99998.14
2023-03-12T12:11:42.566Z,100011.90
2023-03-12T12:14:59.118Z,100009.79
2023-03-12T12:17:52.637Z,99996.48
2023-03-12T12:20:56.077Z,100001.27
2023-03-12T12:24:01.394Z,100003.25
2023-03-12T12:27:10.946Z,100001.27
2023-03-12T12:30:11.870Z,100009.14
2023-03-12T12:33:09.285Z,100008.30
2023-03-12T12:35:48.234Z,100012.14
2023-03-12T12:38:48.933Z,100023.95
2023-03-12T12:41:38.232Z,100025.64
2023-03-12T12:44:30.166Z,100025.59
2023-03-12T12:47:13.700Z,100035.20
2023-03-12T12:49:57.993Z,100042.16
2023-03-12T12:52:34.686Z,100047.35
2023-03-12T12:55:14.294Z,100048.34
2023-03-12T12:58:02.118Z,100059.48
2023-03-12T13:00:54.778Z,100061.05
2023-03-12T13:03:32.522Z,100066.73
2023-03-12T13:06:12.940Z,100070.84
2023-03-12T13:08:50.943Z,100070.17
2023-03-12T13:11:45.167Z,100069.35
2023-03-12T13:14:37.272Z,100072.09
2023-03-12T13:17:52.846Z,100078.36
2023-03-12T13:20:56.300Z,100081.56
2023-03-12T13:24:03.592Z,100087.77
2023-03-12T13:27:07.175Z,100089.55
2023-03-12T13:29:43.735Z,100090.69
2023-03-12T13:33:03.993Z,100091.48
2023-03-12T13:35:42.220Z,100086.48
2023-03-12T13:38:40.422Z,100090.91
2023-03-12T13:41:34.327Z,100089.74
2023-03-12T13:44:28.120Z,100091.98
2023-03-12T13:47:08.233Z,100094.99
2023-03-12T13:50:15.588Z,100096.66
2023-03-12T13:53:11.406Z,100101.84
2023-03-12T13:55:45.620Z,100106.43
2023-03-12T13:58:24.228Z,100107.53
2023-03-12T14:01:15.867Z,100109.73
2023-03-12T14:03:52.394Z,100103.39
2023-03-12T14:06:32.063Z,100104.31
2023-03-12T14:09:08.525Z,100107.34
2023-03-12T14:12:10.849Z,100111.70
2023-03-12T14:15:16.536Z,100109.75
2023-03-12T14:17:56.855Z,100116.89
2023-03-12T14:20:39.623Z,100116.13
2023-03-12T14:23:18.354Z,100117.47
2023-03-12T14:25:50.090Z,100119.44
2023-03-12T14:28:33.149Z,100122.99
2023-03-12T14:31:27.361Z,100119.17
2023-03-12T14:34:19.213Z,100123.69
2023-03-12T14:37:16.886Z,100130.19
2023-03-12T14:39:56.316Z,100129.77
2023-03-12T14:42:36.948Z,100127.70
2023-03-12T14:45:19.413Z,100131.67
2023-03-12T14:48:02.640Z,100132.02
2023-03-12T14:50:41.995Z,100131.97
2023-03-12T14:53:29.131Z,100132.76
2023-03-12T14:56:33.520Z,100144.77
2023-03-12T14:59:28.582Z,100137.25
2023-03-12T15:02:15.474Z,100144.11
2023-03-12T15:04:54.828Z,100154.31
2023-03-12T15:07:42.743Z,100154.84
2023-03-12T15:10:34.711Z,100158.55
2023-03-12T15:13:15.385Z,100162.01
2023-03-12T15:15:56.013Z,100169.43
2023-03-12T15:18:36.047Z,100173.46
2023-03-12T15:21:13.595Z,100173.75
2023-03-12T15:23:53.068Z,100182.15
2023-03-12T15:26:32.362Z,100188.16
2023-03-12T15:29:30.070Z,100192.52
2023-03-12T15:32:01.624Z,100196.29
2023-03-12T15:34:37.789Z,100194.86
2023-03-12T15:37:43.369Z,100195.99
2023-03-12T15:40:33.599Z,100196.50
2023-03-12T15:43:20.645Z,100195.09
2023-03-12T15:46:03.820Z,100195.26
2023-03-12T15:48:44.400Z,100199.58
2023-03-12T15:51:41.656Z,100197.30
2023-03-12T15:54:31.174Z,100201.40
2023-03-12T15:57:25.325Z,100201.86
2023-03-12T16:00:25.772Z,100209.27
2023-03-12T16:03:08.585Z,100214.19
2023-03-12T16:05:40.825Z,100214.13
2023-03-12T16:08:36.690Z,100213.18
2023-03-12T16:11:28.581Z,100213.59
2023-03-12T16:14:35.413Z,100210.77
2023-03-12T16:17:18.385Z,100218.04
2023-03-12T16:19:55.864Z,100218.48
2023-03-12T16:22:34.300Z,100221.01
2023-03-12T16:25:13.809Z,100220.08
2023-03-12T16:27:59.449Z,100222.02
2023-03-12T16:30:38.935Z,100220.30
2023-03-12T16:33:20.540Z,100223.08
2023-03-12T16:35:59.134Z,100226.77
2023-03-12T16:38:37.417Z,100226.61
2023-03-12T16:41:20.743Z,100220.66
2023-03-12T16:43:59.217Z,100233.91
2023-03-12T16:46:37.126Z,100232.95
2023-03-12T16:49:14.933Z,100231.42
2023-03-12T16:51:52.731Z,100234.74
2023-03-12T16:54:30.608Z,100241.43
2023-03-12T16:57:03.699Z,100248.12
2023-03-12T16:59:43.643Z,100249.52
2023-03-12T17:02:22.020Z,100250.76
2023-03-12T17:05:00.059Z,100252.98
2023-03-12T17:07:38.967Z,100254.30
2023-03-12T17:10:19.547Z,100255.68
2023-03-12T17:12:58.704Z,100255.23
2023-03-12T17:15:37.233Z,100257.67
2023-03-12T17:18:17.282Z,100257.50
2023-03-12T17:20:56.561Z,100256.75
2023-03-12T17:23:35.761Z,100260.73
2023-03-12T17:26:09.392Z,100261.69
2023-03-12T17:28:43.338Z,100266.60
2023-03-12T17:31:22.365Z,100274.16
2023-03-12T17:34:04.024Z,100274.73
2023-03-12T17:36:42.522Z,100277.52
2023-03-12T17:39:20.578Z,100284.50
2023-03-12T17:41:58.577Z,100283.13
2023-03-12T17:44:39.943Z,100284.12
2023-03-12T17:47:18.373Z,100283.48
2023-03-12T17:49:55.955Z,100289.02
2023-03-12T17:52:35.246Z,100284.65
2023-03-12T17:55:11.618Z,100285.55
2023-03-12T17:57:52.153Z,100281.46
2023-03-12T18:00:30.344Z,100283.42
2023-03-12T18:03:07.161Z,100281.82
2023-03-12T18:05:51.121Z,100287.56
2023-03-12T18:08:30.013Z,100292.91
2023-03-12T18:11:07.266Z,100296.70
2023-03-12T18:13:45.230Z,100299.06
2023-03-12T18:16:23.429Z,100304.25
2023-03-12T18:19:01.915Z,100306.67
2023-03-12T18:21:40.080Z,100312.25
2023-03-12T18:24:18.617Z,100313.30
2023-03-12T18:26:51.272Z,100314.59
2023-03-12T18:29:24.749Z,100315.94
2023-03-12T18:32:05.193Z,100319.30
2023-03-12T18:34:45.016Z,100323.02
2023-03-12T18:37:23.357Z,100322.91
2023-03-12T18:40:01.439Z,100322.73
2023-03-12T18:42:44.769Z,100323.71
2023-03-12T18:45:23.747Z,100327.30
2023-03-12T18:48:02.088Z,100329.91
2023-03-12T18:50:40.397Z,100325.98
2023-03-12T18:53:11.515Z,100324.91
2023-03-12T18:56:01.448Z,100325.25
2023-03-12T18:58:40.033Z,100327.80
2023-03-12T19:01:12.549Z,100326.84
2023-03-12T19:03:51.837Z,100322.33
2023-03-12T19:06:40.754Z,100317.23
2023-03-12T19:09:26.474Z,100311.25
2023-03-12T19:12:06.056Z,100315.81
2023-03-12T19:14:44.865Z,100314.15
2023-03-12T19:17:16.321Z,100301.74
2023-03-12T19:19:54.660Z,100312.98
2023-03-12T19:22:32.605Z,100304.27
2023-03-12T19:25:10.770Z,100303.05
2023-03-12T19:27:48.901Z,100305.48
2023-03-12T19:30:30.970Z,100311.17
2023-03-12T19:33:10.400Z,100314.73
2023-03-12T19:35:49.213Z,100319.52
2023-03-12T19:38:27.787Z,100321.57
2023-03-12T19:41:08.976Z,100329.20
2023-03-12T19:43:46.691Z,100325.09
2023-03-12T19:46:23.805Z,100329.01
2023-03-12T19:49:06.915Z,100336.23
2023-03-12T19:51:44.406Z,100339.63
2023-03-12T19:54:22.187Z,100343.07
2023-03-12T19:56:59.081Z,100346.41
2023-03-12T19:59:30.120Z,100343.16
2023-03-12T20:02:08.654Z,100344.13
2023-03-12T20:04:45.518Z,100348.95
2023-03-12T20:07:23.113Z,100347.09
2023-03-12T20:10:00.440Z,100348.28
2023-03-12T20:12:37.406Z,100356.32
2023-03-12T20:15:11.979Z,100357.09
2023-03-12T20:17:50.087Z,100353.11
2023-03-12T20:20:27.647Z,100351.65
2023-03-12T20:23:05.200Z,100350.23
2023-03-12T20:25:51.892Z,100352.17
2023-03-12T20:28:29.958Z,100348.48
2023-03-12T20:31:16.115Z,100340.88
2023-03-12T20:33:54.018Z,100342.01
2023-03-12T20:36:31.922Z,100339.02
2023-03-12T20:39:09.686Z,100338.81
2023-03-12T20:41:46.468Z,100333.45
2023-03-12T20:44:23.318Z,100328.25
2023-03-12T20:47:00.712Z,100323.58
2023-03-12T20:49:31.754Z,100327.06
2023-03-12T20:52:09.269Z,100323.46
2023-03-12T20:54:47.480Z,100323.17
2023-03-12T20:57:25.050Z,100318.90
2023-03-12T21:00:02.009Z,100322.70
2023-03-12T21:02:39.466Z,100327.13
2023-03-12T21:05:12.438Z,100321.89
2023-03-12T21:07:49.698Z,100317.43
2023-03-12T21:10:26.906Z,100318.29
2023-03-12T21:13:04.217Z,100313.67
2023-03-12T21:15:34.490Z,100311.36
2023-03-12T21:18:11.176Z,100309.44
2023-03-12T21:20:47.946Z,100306.83
2023-03-12T21:23:25.407Z,100300.92
2023-03-12T21:26:09.053Z,100295.33
2023-03-12T21:28:47.031Z,100298.69
2023-03-12T21:31:20.148Z,100306.45
2023-03-12T21:34:07.385Z,100306.77
2023-03-12T21:36:46.675Z,100307.71
2023-03-12T21:39:24.338Z,100307.58
2023-03-12T21:42:01.031Z,100304.46
2023-03-12T21:44:40.539Z,100309.34
2023-03-12T21:47:12.067Z,100307.33
2023-03-12T21:49:49.374Z,100300.73
2023-03-12T21:52:26.697Z,100299.70
2023-03-12T21:54:56.851Z,100298.30
2023-03-12T21:57:31.683Z,100294.66
2023-03-12T22:00:13.512Z,100288.58
2023-03-12T22:02:51.180Z,100288.70
2023-03-12T22:05:27.448Z,100291.70
2023-03-12T22:08:04.530Z,100293.95
2023-03-12T22:10:40.516Z,100289.17
2023-03-12T22:13:13.573Z,100289.05
2023-03-12T22:16:00.733Z,100289.92
2023-03-12T22:18:44.437Z,100285.96
2023-03-12T22:21:21.934Z,100282.89
2023-03-12T22:23:59.189Z,100279.07
2023-03-12T22:26:35.707Z,100272.44
2023-03-12T22:29:12.689Z,100278.92
2023-03-12T22:31:49.237Z,100286.75
2023-03-12T22:34:26.551Z,100291.41
2023-03-12T22:36:57.097Z,100289.95
2023-03-12T22:39:33.146Z,100283.92
2023-03-12T22:42:10.983Z,100279.47
2023-03-12T22:44:48.059Z,100274.42
2023-03-12T22:47:18.304Z,100267.66
2023-03-12T22:49:58.172Z,100265.14
2023-03-12T22:52:35.762Z,100263.88
2023-03-12T22:55:12.955Z,100269.07
2023-03-12T22:57:49.516Z,100276.30
2023-03-12T23:00:27.160Z,100269.73
2023-03-12T23:02:57.421Z,100262.90
2023-03-12T23:05:35.020Z,100267.73
2023-03-12T23:08:11.985Z,100259.17
2023-03-12T23:10:53.789Z,100256.34
2023-03-12T23:13:30.219Z,100248.71
2023-03-12T23:16:14.565Z,100250.38
2023-03-12T23:18:51.520Z,100250.67
2023-03-12T23:21:29.334Z,100247.91
2023-03-12T23:24:06.666Z,100247.48
2023-03-12T23:26:44.311Z,100251.85
2023-03-12T23:29:14.593Z,100255.61
2023-03-12T23:31:52.367Z,100256.92
2023-03-12T23:34:30.585Z,100246.64
2023-03-12T23:37:08.752Z,100228.77
2023-03-12T23:39:54.523Z,100220.49
2023-03-12T23:42:32.534Z,100217.42
2023-03-12T23:45:11.177Z,100218.72
2023-03-12T23:47:47.520Z,100225.03
2023-03-12T23:50:24.789Z,100229.99
2023-03-12T23:53:01.354Z,100224.59
2023-03-12T23:55:31.687Z,100218.37
2023-03-12T23:58:09.748Z,100213.17
